createdAt,value
2017-09-30T00:02:21.673Z,17.96
2017-09-30T00:04:51.129Z,17.90
2017-09-30T00:07:21.105Z,17.90
2017-09-30T00:09:49.850Z,17.87
2017-09-30T00:12:18.822Z,17.80
2017-09-30T00:14:47.798Z,17.81
2017-09-30T00:17:15.574Z,17.81
2017-09-30T00:19:43.252Z,17.77
2017-09-30T00:22:11.432Z,17.59
2017-09-30T00:24:39.130Z,17.58
2017-09-30T00:27:06.708Z,17.56
2017-09-30T00:29:34.231Z,17.50
2017-09-30T00:32:03.162Z,17.44
2017-09-30T00:34:31.502Z,17.35
2017-09-30T00:37:02.155Z,17.45
2017-09-30T00:39:30.103Z,17.41
2017-09-30T00:41:57.767Z,17.41
2017-09-30T00:44:25.842Z,17.41
2017-09-30T00:46:53.685Z,17.42
2017-09-30T00:49:21.436Z,17.42
2017-09-30T00:51:49.861Z,17.42
2017-09-30T00:54:17.538Z,17.43
2017-09-30T00:56:45.469Z,17.37
2017-09-30T00:59:15.147Z,17.33
2017-09-30T01:01:43.804Z,17.29
2017-09-30T01:04:11.323Z,17.22
2017-09-30T01:06:38.883Z,17.22
2017-09-30T01:09:06.440Z,17.23
2017-09-30T01:11:34.001Z,17.30
2017-09-30T01:14:01.788Z,17.32
2017-09-30T01:16:29.891Z,17.33
2017-09-30T01:18:57.429Z,17.38
2017-09-30T01:21:26.201Z,17.43
2017-09-30T01:23:53.788Z,17.41
2017-09-30T01:26:21.335Z,17.42
2017-09-30T01:28:48.876Z,17.40
2017-09-30T01:31:16.445Z,17.36
2017-09-30T01:33:44.056Z,17.40
2017-09-30T01:36:11.651Z,17.33
2017-09-30T01:38:39.254Z,17.40
2017-09-30T01:41:06.849Z,17.35
2017-09-30T01:43:34.881Z,17.37
2017-09-30T01:46:02.851Z,17.41
2017-09-30T01:48:30.588Z,17.44
2017-09-30T01:50:58.927Z,17.46
2017-09-30T01:53:26.518Z,17.45
2017-09-30T01:55:54.565Z,17.39
2017-09-30T01:58:22.345Z,17.39
2017-09-30T02:00:50.039Z,17.40
2017-09-30T02:03:17.633Z,17.41
2017-09-30T02:05:45.230Z,17.36
2017-09-30T02:08:13.267Z,17.35
2017-09-30T02:10:41.019Z,17.31
2017-09-30T02:13:09.354Z,17.27
2017-09-30T02:15:38.520Z,17.18
2017-09-30T02:18:06.117Z,17.20
2017-09-30T02:20:33.677Z,17.11
2017-09-30T02:23:01.732Z,17.10
2017-09-30T02:25:30.614Z,17.11
2017-09-30T02:27:58.376Z,17.13
2017-09-30T02:30:26.177Z,17.13
2017-09-30T02:32:54.772Z,17.16
2017-09-30T02:35:22.657Z,17.16
2017-09-30T02:37:50.434Z,17.04
2017-09-30T02:40:19.379Z,17.15
2017-09-30T02:42:47.933Z,17.14
2017-09-30T02:45:16.128Z,17.10
2017-09-30T02:47:44.923Z,17.09
2017-09-30T02:50:13.701Z,17.10
2017-09-30T02:52:41.318Z,17.08
2017-09-30T02:55:09.196Z,17.00
2017-09-30T02:57:36.990Z,16.88
2017-09-30T03:00:06.933Z,16.72
2017-09-30T03:02:35.686Z,16.77
2017-09-30T03:05:03.379Z,16.62
2017-09-30T03:07:31.069Z,16.67
2017-09-30T03:09:58.696Z,16.71
2017-09-30T03:12:31.610Z,16.75
2017-09-30T03:15:00.311Z,16.79
2017-09-30T03:17:29.394Z,16.83
2017-09-30T03:19:57.565Z,16.85
2017-09-30T03:22:25.603Z,16.85
2017-09-30T03:24:53.521Z,16.88
2017-09-30T03:27:21.270Z,16.94
2017-09-30T03:29:49.295Z,16.96
2017-09-30T03:32:17.250Z,16.91
2017-09-30T03:34:44.832Z,16.92
2017-09-30T03:37:12.384Z,16.94
2017-09-30T03:39:39.906Z,16.93
2017-09-30T03:42:07.485Z,16.93
2017-09-30T03:44:35.658Z,16.91
2017-09-30T03:47:04.391Z,16.94
2017-09-30T03:49:32.174Z,16.93
2017-09-30T03:51:59.787Z,16.86
2017-09-30T03:54:27.406Z,16.82
2017-09-30T03:56:54.983Z,16.79
2017-09-30T03:59:22.570Z,16.84
2017-09-30T04:01:50.159Z,16.89
2017-09-30T04:04:18.080Z,16.82
2017-09-30T04:06:46.383Z,16.76
2017-09-30T04:09:15.368Z,16.84
2017-09-30T04:11:48.107Z,16.73
2017-09-30T04:14:15.625Z,16.75
2017-09-30T04:19:17.899Z,16.80
2017-09-30T04:21:46.203Z,16.83
2017-09-30T04:24:14.708Z,16.79
2017-09-30T04:26:47.449Z,16.85
2017-09-30T04:29:18.507Z,16.83
2017-09-30T04:31:52.984Z,16.85
2017-09-30T04:34:35.234Z,16.82
2017-09-30T04:39:40.954Z,16.77
2017-09-30T04:45:40.868Z,16.60
2017-09-30T04:48:08.408Z,16.57
2017-09-30T04:50:35.998Z,16.51
2017-09-30T04:53:03.545Z,16.47
2017-09-30T04:55:31.319Z,16.43
2017-09-30T04:57:58.864Z,16.43
2017-09-30T05:00:28.631Z,16.34
2017-09-30T05:02:57.407Z,16.33
2017-09-30T05:05:25.087Z,16.22
2017-09-30T05:07:54.229Z,16.21
2017-09-30T05:10:21.710Z,16.21
2017-09-30T05:12:50.578Z,16.21
2017-09-30T05:15:18.714Z,16.23
2017-09-30T05:17:46.246Z,16.28
2017-09-30T05:20:13.891Z,16.32
2017-09-30T05:22:41.387Z,16.34
2017-09-30T05:25:09.986Z,16.35
2017-09-30T05:27:37.692Z,16.39
2017-09-30T05:30:06.757Z,16.40
2017-09-30T05:32:34.286Z,16.44
2017-09-30T05:35:01.818Z,16.45
2017-09-30T05:37:29.316Z,16.50
2017-09-30T05:39:56.825Z,16.51
2017-09-30T05:42:24.384Z,16.56
2017-09-30T05:44:51.919Z,16.63
2017-09-30T05:47:19.464Z,16.69
2017-09-30T05:49:48.334Z,16.72
2017-09-30T05:52:15.980Z,16.77
2017-09-30T05:54:44.632Z,16.77
2017-09-30T05:57:12.228Z,16.82
2017-09-30T05:59:39.789Z,16.82
2017-09-30T06:02:07.422Z,16.88
2017-09-30T06:04:35.382Z,16.91
2017-09-30T06:07:03.096Z,16.93
2017-09-30T06:09:30.671Z,16.91
2017-09-30T06:11:58.161Z,16.88
2017-09-30T06:14:25.792Z,16.96
2017-09-30T06:16:53.362Z,17.02
2017-09-30T06:19:21.005Z,17.02
2017-09-30T06:21:48.588Z,17.04
2017-09-30T06:24:16.120Z,17.15
2017-09-30T06:26:43.691Z,17.24
2017-09-30T06:29:11.256Z,17.30
2017-09-30T06:31:38.834Z,17.33
2017-09-30T06:34:13.651Z,17.37
2017-09-30T06:36:53.025Z,17.39
2017-09-30T06:39:25.853Z,17.44
2017-09-30T06:41:55.873Z,17.50
2017-09-30T06:44:24.976Z,17.42
2017-09-30T06:46:52.615Z,17.10
2017-09-30T06:52:04.668Z,17.22
2017-09-30T06:54:32.237Z,17.22
2017-09-30T06:56:59.819Z,17.33
2017-09-30T06:59:27.386Z,17.17
2017-09-30T07:01:55.067Z,17.35
2017-09-30T07:04:22.628Z,17.41
2017-09-30T07:07:14.829Z,17.52
2017-09-30T07:09:52.385Z,17.51
2017-09-30T07:12:22.271Z,17.61
2017-09-30T07:14:52.055Z,17.82
2017-09-30T07:17:19.646Z,17.94
2017-09-30T07:19:47.355Z,17.92
2017-09-30T07:22:14.937Z,18.07
2017-09-30T07:24:42.468Z,18.08
2017-09-30T07:27:09.990Z,18.12
2017-09-30T07:29:46.664Z,18.13
2017-09-30T07:32:14.280Z,18.04
2017-09-30T07:34:47.514Z,18.17
2017-09-30T07:37:15.018Z,18.47
2017-09-30T07:39:42.568Z,21.07
2017-09-30T07:42:10.151Z,24.88
2017-09-30T07:44:37.664Z,27.15
2017-09-30T07:47:05.189Z,28.99
2017-09-30T07:49:32.916Z,30.02
2017-09-30T07:52:01.957Z,30.16
2017-09-30T07:54:29.913Z,31.28
2017-09-30T07:57:10.493Z,29.40
2017-09-30T07:59:38.006Z,27.68
2017-09-30T08:02:15.772Z,26.20
2017-09-30T08:04:43.258Z,26.17
2017-09-30T08:07:12.534Z,26.37
2017-09-30T08:09:40.121Z,26.38
2017-09-30T08:12:07.714Z,25.80
2017-09-30T08:14:35.216Z,25.55
2017-09-30T08:17:03.170Z,25.43
2017-09-30T08:19:30.672Z,25.24
2017-09-30T08:21:58.159Z,25.01
2017-09-30T08:24:25.775Z,24.92
2017-09-30T08:26:53.312Z,25.88
2017-09-30T08:29:20.849Z,26.02
2017-09-30T08:31:48.360Z,26.17
2017-09-30T08:34:16.092Z,27.28
2017-09-30T08:36:43.656Z,27.68
2017-09-30T08:39:11.199Z,28.62
2017-09-30T08:41:46.915Z,30.17
2017-09-30T08:44:15.233Z,31.43
2017-09-30T08:46:43.905Z,33.00
2017-09-30T08:49:11.929Z,33.78
2017-09-30T08:51:39.444Z,33.53
2017-09-30T08:54:07.009Z,31.77
2017-09-30T08:56:34.559Z,29.84
2017-09-30T08:59:02.236Z,29.76
2017-09-30T09:01:29.779Z,30.81
2017-09-30T09:03:57.294Z,32.23
2017-09-30T09:06:24.966Z,33.67
2017-09-30T09:08:52.695Z,34.76
2017-09-30T09:11:20.271Z,35.15
2017-09-30T09:16:21.535Z,34.38
2017-09-30T09:18:49.046Z,33.73
2017-09-30T09:21:16.915Z,31.42
2017-09-30T09:23:44.502Z,29.65
2017-09-30T09:26:12.447Z,28.45
2017-09-30T09:28:40.090Z,27.63
2017-09-30T09:31:09.168Z,27.16
2017-09-30T09:33:36.761Z,27.05
2017-09-30T09:36:05.221Z,26.61
2017-09-30T09:38:32.832Z,26.06
2017-09-30T09:41:00.454Z,26.00
2017-09-30T09:43:27.935Z,25.97
2017-09-30T09:45:55.448Z,25.93
2017-09-30T09:48:23.032Z,25.63
2017-09-30T09:50:50.569Z,25.73
2017-09-30T09:53:18.203Z,25.61
2017-09-30T09:55:45.736Z,25.76
2017-09-30T09:58:13.413Z,26.69
2017-09-30T10:00:40.929Z,27.46
2017-09-30T10:03:08.606Z,28.85
2017-09-30T10:05:38.682Z,29.81
2017-09-30T10:08:06.830Z,32.08
2017-09-30T10:10:34.660Z,33.52
2017-09-30T10:13:04.033Z,34.59
2017-09-30T10:15:31.560Z,35.36
2017-09-30T10:17:59.107Z,35.95
2017-09-30T10:20:27.732Z,36.48
2017-09-30T10:22:55.260Z,37.46
2017-09-30T10:25:23.228Z,37.21
2017-09-30T10:27:50.825Z,36.84
2017-09-30T10:30:18.314Z,37.39
2017-09-30T10:32:46.070Z,37.70
2017-09-30T10:35:13.596Z,37.27
2017-09-30T10:37:41.965Z,38.04
2017-09-30T10:40:09.577Z,38.07
2017-09-30T10:42:37.202Z,38.67
2017-09-30T10:45:04.867Z,38.90
2017-09-30T10:47:32.542Z,38.87
2017-09-30T10:50:00.082Z,39.43
2017-09-30T10:52:27.595Z,39.23
2017-09-30T10:54:55.148Z,38.68
2017-09-30T10:57:26.130Z,38.55
2017-09-30T10:59:53.628Z,38.73
2017-09-30T11:02:21.139Z,39.24
2017-09-30T11:04:48.651Z,39.21
2017-09-30T11:07:16.210Z,39.37
2017-09-30T11:09:43.753Z,40.09
2017-09-30T11:12:11.212Z,39.59
2017-09-30T11:14:38.781Z,38.99
2017-09-30T11:17:06.277Z,36.75
2017-09-30T11:19:34.862Z,36.22
2017-09-30T11:22:02.379Z,36.17
2017-09-30T11:24:29.940Z,35.81
2017-09-30T11:26:57.771Z,34.72
2017-09-30T11:29:25.585Z,33.41
2017-09-30T11:31:57.164Z,32.92
2017-09-30T11:34:24.882Z,33.55
2017-09-30T11:36:52.477Z,33.54
2017-09-30T11:39:20.289Z,33.95
2017-09-30T11:41:52.652Z,34.64
2017-09-30T11:44:28.307Z,36.66
2017-09-30T11:46:55.969Z,38.24
2017-09-30T11:49:25.985Z,38.74
2017-09-30T11:51:53.542Z,39.29
2017-09-30T11:54:21.058Z,40.20
2017-09-30T11:57:01.277Z,40.74
2017-09-30T11:59:28.871Z,41.35
2017-09-30T12:02:00.678Z,40.85
2017-09-30T12:04:31.686Z,40.47
2017-09-30T12:06:59.283Z,40.88
2017-09-30T12:09:27.200Z,38.74
2017-09-30T12:11:54.845Z,36.92
2017-09-30T12:14:23.895Z,36.74
2017-09-30T12:16:51.575Z,35.86
2017-09-30T12:19:19.216Z,36.28
2017-09-30T12:24:45.219Z,38.23
2017-09-30T12:27:12.807Z,37.65
2017-09-30T12:29:41.824Z,37.85
2017-09-30T12:32:10.334Z,37.66
2017-09-30T12:34:38.017Z,37.57
2017-09-30T12:37:06.529Z,37.98
2017-09-30T12:39:34.229Z,38.60
2017-09-30T12:42:02.252Z,38.73
2017-09-30T12:44:30.289Z,38.14
2017-09-30T12:46:59.221Z,37.02
2017-09-30T12:49:29.475Z,37.29
2017-09-30T12:51:57.137Z,37.03
2017-09-30T12:54:25.319Z,36.33
2017-09-30T12:56:55.563Z,35.72
2017-09-30T12:59:23.282Z,36.78
2017-09-30T13:01:50.824Z,36.61
2017-09-30T13:04:18.326Z,35.38
2017-09-30T13:06:45.855Z,34.73
2017-09-30T13:09:13.437Z,34.80
2017-09-30T13:11:40.956Z,34.90
2017-09-30T13:14:08.483Z,34.24
2017-09-30T13:16:36.213Z,34.27
2017-09-30T13:19:03.807Z,34.29
2017-09-30T13:21:31.357Z,34.29
2017-09-30T13:23:58.900Z,33.72
2017-09-30T13:26:26.421Z,34.12
2017-09-30T13:28:53.991Z,33.49
2017-09-30T13:31:21.585Z,33.09
2017-09-30T13:33:49.093Z,32.84
2017-09-30T13:36:16.628Z,32.30
2017-09-30T13:38:44.139Z,32.21
2017-09-30T13:41:11.676Z,31.51
2017-09-30T13:43:40.259Z,31.68
2017-09-30T13:46:08.313Z,31.08
2017-09-30T13:48:35.829Z,31.07
2017-09-30T13:51:03.328Z,30.45
2017-09-30T13:53:30.972Z,30.53
2017-09-30T13:56:00.490Z,29.95
2017-09-30T13:58:28.179Z,29.90
2017-09-30T14:00:55.720Z,29.48
2017-09-30T14:03:23.950Z,29.31
2017-09-30T14:05:51.489Z,29.22
2017-09-30T14:08:19.004Z,28.11
2017-09-30T14:10:46.604Z,28.49
2017-09-30T14:13:14.284Z,28.33
2017-09-30T14:15:42.071Z,28.19
2017-09-30T14:18:09.831Z,28.03
2017-09-30T14:23:16.971Z,27.46
2017-09-30T14:25:44.468Z,27.54
2017-09-30T14:28:12.037Z,27.19
2017-09-30T14:30:41.453Z,27.09
2017-09-30T14:33:09.012Z,27.07
2017-09-30T14:35:36.536Z,26.41
2017-09-30T14:38:04.094Z,26.28
2017-09-30T14:40:31.649Z,26.33
2017-09-30T14:42:59.204Z,25.94
2017-09-30T14:45:28.687Z,25.70
2017-09-30T14:47:56.459Z,25.38
2017-09-30T14:50:23.977Z,25.34
2017-09-30T14:58:12.926Z,24.44
2017-09-30T15:00:41.053Z,24.54
2017-09-30T15:03:08.687Z,24.83
2017-09-30T15:08:11.409Z,24.47
2017-09-30T15:10:38.919Z,24.21
2017-09-30T15:13:06.504Z,23.80
2017-09-30T15:15:34.255Z,23.39
2017-09-30T15:18:01.854Z,23.22
2017-09-30T15:20:29.363Z,22.91
2017-09-30T15:22:56.917Z,22.47
2017-09-30T15:25:24.517Z,22.05
2017-09-30T15:27:52.056Z,22.01
2017-09-30T15:30:19.610Z,22.03
2017-09-30T15:32:47.213Z,21.71
2017-09-30T15:35:14.750Z,21.55
2017-09-30T15:37:42.295Z,21.59
2017-09-30T15:43:17.717Z,21.93
2017-09-30T15:45:47.244Z,21.73
2017-09-30T15:48:15.016Z,22.68
2017-09-30T15:50:42.727Z,22.11
2017-09-30T15:53:11.394Z,21.38
2017-09-30T15:55:39.047Z,21.40
2017-09-30T15:58:06.559Z,21.16
2017-09-30T16:00:34.027Z,21.09
2017-09-30T16:06:56.882Z,20.83
2017-09-30T16:09:24.559Z,20.54
2017-09-30T16:11:58.567Z,20.58
2017-09-30T16:17:01.840Z,20.98
2017-09-30T16:19:29.681Z,21.26
2017-09-30T16:21:57.252Z,20.82
2017-09-30T16:24:24.762Z,20.97
2017-09-30T16:27:12.052Z,20.89
